Time;durP1;ratioP1;P1;durP2;ratioP2;P2;SDS_P1;SDS_P2;PMS_P1;PMS_P2;Temp;Humidity;BMP_temperature;BMP_pressure;BME280_temperature;BME280_humidity;BME280_pressure;Samples;Min_cycle;Max_cycle;Signal;HPM_P1;HPM_P2
2022/06/18 00:01:00;;;;;;;3.33;1.95;;;;;;;15.27;63.88;101114.98;1761228;81;21702;-74
2022/06/18 00:03:27;;;;;;;3.02;1.95;;;;;;;15.24;63.83;101108.52;1761074;81;21019;-74
2022/06/18 00:05:57;;;;;;;5.47;2.20;;;;;;;15.23;63.79;101110.78;1761118;80;20989;-74
2022/06/18 00:08:29;;;;;;;4.87;2.30;;;;;;;15.22;64.06;101110.41;1761215;80;21402;-74
2022/06/18 00:13:50;;;;;;;6.58;2.70;;;;;;;15.18;64.18;101109.66;1761145;81;21495;-75
2022/06/18 00:16:21;;;;;;;2.62;2.27;;;;;;;15.15;64.35;101109.80;1761198;80;21000;-74
2022/06/18 00:18:51;;;;;;;5.60;2.50;;;;;;;15.12;64.53;101102.88;1761414;81;21039;-74
2022/06/18 00:21:22;;;;;;;4.00;2.50;;;;;;;15.06;64.54;101104.47;1739598;81;21010;-75
2022/06/18 00:23:50;;;;;;;3.15;2.47;;;;;;;15.02;64.74;101099.38;1733589;81;21061;-75
2022/06/18 00:26:18;;;;;;;4.40;2.85;;;;;;;14.96;64.88;101101.83;1738479;81;21129;-75
2022/06/18 00:28:45;;;;;;;5.17;3.00;;;;;;;14.89;64.96;101101.26;1781769;79;21977;-75
2022/06/18 00:31:13;;;;;;;3.83;2.83;;;;;;;14.84;65.22;101101.91;1769907;79;21019;-74
2022/06/18 00:33:41;;;;;;;6.03;2.42;;;;;;;14.80;65.34;101099.47;1735800;81;21015;-75
2022/06/18 00:36:17;;;;;;;4.90;3.10;;;;;;;14.76;65.47;101101.39;1768640;79;21058;-75
2022/06/18 00:38:48;;;;;;;4.08;2.77;;;;;;;14.72;65.64;101103.31;1777444;80;21177;-75
2022/06/18 00:41:21;;;;;;;;;;;;;;;14.66;65.82;101101.37;1769696;79;20991;-75
2022/06/18 00:44:06;;;;;;;3.22;2.67;;;;;;;14.62;66.23;101101.98;1735273;81;20209;-75
2022/06/18 00:47:10;;;;;;;4.03;3.10;;;;;;;14.57;66.07;101103.95;1790564;79;21489;-75
2022/06/18 00:49:51;;;;;;;6.28;2.50;;;;;;;14.55;66.23;101100.98;1740222;81;21476;-74
2022/06/18 00:52:26;;;;;;;4.10;2.80;;;;;;;14.53;66.28;101102.38;1760825;79;21305;-75
2022/06/18 00:55:17;;;;;;;2.85;2.20;;;;;;;14.48;66.24;101099.89;1773576;79;20986;-75
2022/06/18 00:57:53;;;;;;;6.80;2.60;;;;;;;14.43;66.12;101094.41;1754112;80;21588;-74
2022/06/18 01:00:28;;;;;;;3.17;2.20;;;;;;;14.41;66.29;101097.57;1770518;79;20995;-75
2022/06/18 01:02:56;;;;;;;4.37;2.75;;;;;;;14.36;66.31;101094.30;1779414;79;21007;-74
2022/06/18 01:05:28;;;;;;;3.15;2.37;;;;;;;14.34;66.57;101092.17;1743129;81;21865;-75
2022/06/18 01:08:01;;;;;;;2.65;2.20;;;;;;;14.34;66.79;101088.22;1779485;80;21495;-75
2022/06/18 01:10:37;;;;;;;6.00;2.33;;;;;;;14.34;66.81;101088.22;1764311;80;21041;-75
2022/06/18 01:13:10;;;;;;;6.42;2.40;;;;;;;14.36;66.91;101080.64;1737142;81;21008;-75
2022/06/18 01:15:42;;;;;;;3.87;2.47;;;;;;;14.37;66.97;101074.44;1776888;79;21065;-75
2022/06/18 01:18:09;;;;;;;;;;;;;;;14.39;67.05;101076.55;1781433;79;21292;-75
2022/06/18 01:20:44;;;;;;;3.95;2.40;;;;;;;14.42;67.43;101075.10;1770342;79;20157;-75
2022/06/18 01:23:20;;;;;;;4.33;2.83;;;;;;;14.44;67.20;101075.91;1771424;80;21010;-75
2022/06/18 01:25:48;;;;;;;3.95;2.55;;;;;;;14.45;67.29;101073.65;1766782;79;21117;-75
2022/06/18 01:28:17;;;;;;;4.17;2.58;;;;;;;14.56;67.56;101076.34;1741863;81;21047;-75
2022/06/18 01:30:47;;;;;;;4.72;2.52;;;;;;;14.65;67.56;101077.25;1750501;80;21921;-75
2022/06/18 01:33:17;;;;;;;6.15;2.67;;;;;;;14.74;67.59;101068.92;1759906;80;21082;-75
2022/06/18 01:35:50;;;;;;;3.40;2.40;;;;;;;14.84;67.51;101075.52;1740522;81;21051;-75
2022/06/18 01:38:24;;;;;;;4.22;2.40;;;;;;;14.86;67.42;101063.13;1758954;79;21062;-75
2022/06/18 01:44:16;;;;;;;3.80;2.62;;;;;;;14.86;67.46;101063.13;1761361;79;22252;-75
2022/06/18 01:46:48;;;;;;;4.95;2.52;;;;;;;14.88;67.46;101058.64;1730672;81;21054;-75
2022/06/18 01:49:22;;;;;;;4.35;2.65;;;;;;;14.87;67.50;101058.70;1740000;81;21069;-75
2022/06/18 01:51:52;;;;;;;4.35;2.77;;;;;;;14.88;67.56;101056.44;1745344;81;21066;-75
2022/06/18 01:54:30;;;;;;;5.53;3.20;;;;;;;14.91;67.65;101051.05;1759838;81;21070;-75
2022/06/18 01:57:05;;;;;;;4.37;3.00;;;;;;;14.92;67.75;101052.28;1760184;81;21140;-75
2022/06/18 01:59:37;;;;;;;5.50;3.20;;;;;;;14.95;67.73;101047.34;1760766;81;21488;-75
2022/06/18 02:02:07;;;;;;;5.75;3.15;;;;;;;14.99;67.92;101042.77;1745660;81;21003;-75
2022/06/18 02:04:35;;;;;;;5.28;3.00;;;;;;;15.04;67.96;101042.95;1749650;81;20947;-75
2022/06/18 02:07:07;;;;;;;6.60;3.10;;;;;;;15.11;68.01;101043.55;1761097;81;21070;-75
2022/06/18 02:10:03;;;;;;;5.00;3.10;;;;;;;15.15;67.99;101039.35;1760745;81;21516;-75
2022/06/18 02:12:36;;;;;;;3.62;2.95;;;;;;;15.18;67.95;101039.21;1766633;81;20999;-75
2022/06/18 02:15:08;;;;;;;4.40;2.90;;;;;;;15.25;68.00;101041.59;1760631;81;21275;-76
2022/06/18 02:17:36;;;;;;;4.47;3.17;;;;;;;15.28;67.97;101044.94;1759647;81;21050;-76
2022/06/18 02:20:15;;;;;;;4.08;3.05;;;;;;;15.35;68.03;101043.73;1760295;81;21019;-76
2022/06/18 02:22:47;;;;;;;4.45;3.05;;;;;;;15.39;68.08;101041.33;1751195;81;21123;-76
2022/06/18 02:25:17;;;;;;;4.55;3.62;;;;;;;15.43;68.09;101039.87;1763383;80;21003;-76
2022/06/18 02:27:45;;;;;;;4.65;3.05;;;;;;;15.49;68.18;101043.09;1760276;81;21513;-76
2022/06/18 02:30:21;;;;;;;3.87;2.98;;;;;;;15.53;68.18;101038.04;1783401;80;21009;-76
2022/06/18 02:33:00;;;;;;;6.20;3.20;;;;;;;15.58;67.98;101033.87;1767128;79;21042;-75
2022/06/18 02:35:34;;;;;;;6.00;3.33;;;;;;;15.61;67.98;101032.40;1763387;80;21827;-75
2022/06/18 02:38:16;;;;;;;3.98;3.15;;;;;;;15.66;68.05;101038.77;1744138;81;21099;-75
2022/06/18 02:40:44;;;;;;;4.80;3.45;;;;;;;15.73;68.09;101033.15;1770546;79;21050;-75
2022/06/18 02:43:13;;;;;;;8.03;3.10;;;;;;;15.79;68.01;101040.77;1755344;81;21070;-75
2022/06/18 02:45:43;;;;;;;5.45;3.35;;;;;;;15.87;68.07;101035.59;1772197;80;21050;-77
2022/06/18 02:48:11;;;;;;;5.72;3.37;;;;;;;15.91;67.94;101033.20;1744014;81;21906;-75
2022/06/18 02:50:42;;;;;;;7.33;2.85;;;;;;;15.93;67.91;101036.13;1772928;80;21004;-76
2022/06/18 02:53:12;;;;;;;7.15;3.72;;;;;;;15.94;67.92;101028.61;1743084;81;21063;-79
2022/06/18 02:55:47;;;;;;;6.87;3.35;;;;;;;15.99;67.88;101024.40;1773771;79;21035;-76
2022/06/18 02:58:29;;;;;;;6.05;3.20;;;;;;;16.04;67.87;101026.35;1743096;81;21118;-75
2022/06/18 03:01:03;;;;;;;6.53;2.83;;;;;;;16.10;67.86;101030.04;1779192;80;21128;-76
2022/06/18 03:03:38;;;;;;;5.97;2.87;;;;;;;16.13;67.74;101025.92;1764687;79;21067;-76
2022/06/18 03:06:09;;;;;;;5.72;3.25;;;;;;;16.15;67.73;101023.17;1767432;80;21014;-76
2022/06/18 03:08:38;;;;;;;4.85;3.30;;;;;;;16.18;67.66;101026.98;1763628;80;21005;-76
2022/06/18 03:13:57;;;;;;;3.87;3.07;;;;;;;16.19;67.57;101028.72;1748905;80;21822;-75
2022/06/18 03:16:24;;;;;;;5.25;3.00;;;;;;;16.20;67.58;101034.38;1763462;81;20984;-75
2022/06/18 03:18:54;;;;;;;4.15;3.08;;;;;;;16.24;67.71;101031.52;1765788;80;21036;-76
2022/06/18 03:21:27;;;;;;;5.10;2.98;;;;;;;16.28;67.58;101032.21;1768365;80;21090;-75
2022/06/18 03:23:55;;;;;;;7.75;2.90;;;;;;;16.32;67.62;101031.58;1763213;80;21008;-76
2022/06/18 03:26:24;;;;;;;5.55;3.40;;;;;;;16.38;67.68;101029.94;1759650;80;21306;-76
2022/06/18 03:28:53;;;;;;;;;;;;;;;16.41;67.53;101022.72;1773039;80;21457;-76
2022/06/18 03:31:20;;;;;;;9.35;3.25;;;;;;;16.42;67.62;101019.13;1762214;80;20150;-79
2022/06/18 03:33:49;;;;;;;5.22;3.00;;;;;;;16.45;67.50;101018.12;1760007;81;21591;-76
2022/06/18 03:36:19;;;;;;;4.35;2.90;;;;;;;16.48;67.44;101013.51;1762300;80;21109;-76
2022/06/18 03:38:48;;;;;;;5.00;2.90;;;;;;;16.50;67.36;101009.48;1759740;80;21070;-77
2022/06/18 03:41:18;;;;;;;4.70;2.85;;;;;;;16.53;67.25;101007.98;1714845;82;21050;-76
2022/06/18 03:43:45;;;;;;;4.65;3.10;;;;;;;16.54;67.31;101011.02;1701701;83;21051;-77
2022/06/18 03:46:17;;;;;;;5.50;2.77;;;;;;;16.58;67.25;101009.08;1764816;80;20983;-76
2022/06/18 03:49:03;;;;;;;3.80;3.10;;;;;;;16.60;67.27;101009.39;1762919;80;21516;-76
2022/06/18 03:51:33;;;;;;;5.25;2.95;;;;;;;16.62;67.27;101003.52;1763855;80;21074;-76
2022/06/18 03:54:02;;;;;;;4.20;2.50;;;;;;;16.65;67.29;101003.36;1755980;81;21017;-76
2022/06/18 03:56:32;;;;;;;5.83;3.22;;;;;;;16.65;67.27;101001.19;1761934;80;21066;-76
2022/06/18 03:59:01;;;;;;;4.65;2.75;;;;;;;16.67;67.31;100998.85;1763698;80;21063;-76
2022/06/18 04:01:33;;;;;;;6.95;2.72;;;;;;;16.69;67.31;100991.69;1763932;80;21023;-76
2022/06/18 04:04:03;;;;;;;3.40;2.58;;;;;;;16.72;67.33;100990.67;1767364;80;21807;-75
2022/06/18 04:06:39;;;;;;;5.67;3.10;;;;;;;16.73;67.33;100989.73;1765721;80;21069;-76
2022/06/18 04:09:12;;;;;;;6.05;2.80;;;;;;;16.77;67.38;100993.97;1721045;82;21070;-76
2022/06/18 04:11:39;;;;;;;3.90;2.90;;;;;;;16.81;67.25;100991.53;1734032;82;21035;-75
2022/06/18 04:14:06;;;;;;;6.53;3.60;;;;;;;16.87;67.29;100994.31;1742512;81;21003;-77
2022/06/18 04:16:41;;;;;;;5.40;4.30;;;;;;;16.90;67.08;100994.15;1763052;80;21375;-78
2022/06/18 04:19:10;;;;;;;7.72;4.60;;;;;;;16.94;67.03;100993.91;1761925;81;20991;-78
2022/06/18 04:21:37;;;;;;;6.37;3.72;;;;;;;16.98;67.08;100996.39;1719410;82;21043;-78
2022/06/18 04:24:05;;;;;;;4.70;2.95;;;;;;;17.04;67.13;100998.22;1741041;81;21273;-78
2022/06/18 04:26:35;;;;;;;4.50;2.87;;;;;;;17.10;67.15;100989.12;1742509;81;21055;-78
2022/06/18 04:29:03;;;;;;;3.70;3.10;;;;;;;17.16;67.05;100988.77;1742805;81;21116;-79
2022/06/18 04:31:30;;;;;;;4.78;3.33;;;;;;;17.23;67.07;100990.60;1755330;78;21497;-78
2022/06/18 04:33:58;;;;;;;5.30;4.08;;;;;;;17.26;67.02;100982.00;1765933;78;21038;-78
2022/06/18 04:36:44;;;;;;;5.45;3.67;;;;;;;17.32;66.90;100986.11;1763427;81;21082;-78
2022/06/18 04:39:16;;;;;;;5.53;3.20;;;;;;;17.35;66.59;100979.34;1760542;80;21089;-79
2022/06/18 04:41:46;;;;;;;4.40;3.00;;;;;;;17.43;66.66;100985.51;1732194;81;21116;-78
2022/06/18 04:44:18;;;;;;;4.70;2.90;;;;;;;17.46;66.61;100983.56;1731547;81;21526;-79
2022/06/18 04:46:49;;;;;;;5.05;3.15;;;;;;;17.51;66.59;100977.50;1737421;81;21035;-78
2022/06/18 04:49:17;;;;;;;5.83;2.95;;;;;;;17.51;66.59;100977.50;1761607;80;21049;-78
2022/06/18 04:51:44;;;;;;;5.08;3.35;;;;;;;17.54;66.45;100977.36;1765745;80;21511;-78
2022/06/18 04:54:12;;;;;;;5.55;3.60;;;;;;;17.57;66.45;100981.16;1777099;80;21108;-78
2022/06/18 04:56:39;;;;;;;5.30;2.85;;;;;;;17.63;66.34;100979.10;1757531;81;21028;-78
2022/06/18 04:59:07;;;;;;;4.40;3.20;;;;;;;17.63;65.99;100978.63;1732304;81;21249;-78
2022/06/18 05:01:34;;;;;;;3.60;2.85;;;;;;;17.63;65.77;100978.63;1733698;81;21053;-78
2022/06/18 05:04:04;;;;;;;4.33;2.67;;;;;;;17.60;65.56;100974.34;1780061;80;21029;-78
2022/06/18 05:06:36;;;;;;;3.98;2.62;;;;;;;17.61;65.55;100976.05;1750110;80;21098;-78
2022/06/18 05:09:14;;;;;;;4.10;2.77;;;;;;;17.65;65.53;100975.87;1737286;81;21042;-79
2022/06/18 05:11:49;;;;;;;8.13;2.45;;;;;;;17.69;65.56;100970.31;1762212;80;21054;-79
2022/06/18 05:14:18;;;;;;;4.93;3.00;;;;;;;17.76;65.45;100973.45;1737985;81;21087;-79
2022/06/18 05:17:02;;;;;;;11.70;2.95;;;;;;;17.80;65.34;100969.73;1763077;80;21054;-78
2022/06/18 05:19:34;;;;;;;4.20;2.52;;;;;;;17.86;65.24;100965.86;1740575;81;21104;-78
2022/06/18 05:22:03;;;;;;;4.70;2.75;;;;;;;17.90;65.19;100962.92;1765984;80;21051;-78
2022/06/18 05:24:31;;;;;;;3.47;2.70;;;;;;;17.95;65.05;100955.55;1762240;80;21042;-78
2022/06/18 05:27:00;;;;;;;5.05;2.47;;;;;;;18.02;64.97;100954.26;1768456;80;21081;-78
2022/06/18 05:29:28;;;;;;;9.23;2.45;;;;;;;18.06;64.82;100955.77;1752947;81;21615;-78
2022/06/18 05:31:56;;;;;;;3.10;2.27;;;;;;;18.11;64.68;100954.66;1746559;81;21153;-78
2022/06/18 05:34:24;;;;;;;3.55;2.77;;;;;;;18.16;64.75;100951.27;1754702;81;21460;-78
2022/06/18 05:36:52;;;;;;;3.77;2.50;;;;;;;18.19;64.57;100955.91;1758413;81;21055;-79
2022/06/18 05:39:20;;;;;;;5.30;2.40;;;;;;;18.23;64.50;100957.41;1765735;80;21528;-78
2022/06/18 05:41:48;;;;;;;2.77;2.25;;;;;;;18.27;64.40;100957.62;1737711;81;21551;-78
2022/06/18 05:44:15;;;;;;;4.83;2.27;;;;;;;18.33;64.39;100960.86;1789191;80;21172;-79
2022/06/18 05:46:45;;;;;;;2.52;2.08;;;;;;;18.39;64.31;100961.80;1759627;80;21090;-78
2022/06/18 05:49:12;;;;;;;4.53;2.30;;;;;;;18.44;64.30;100962.38;1743130;81;21031;-78
2022/06/18 05:51:39;;;;;;;3.30;1.87;;;;;;;18.50;64.19;100959.34;1751732;81;21042;-78
2022/06/18 05:54:07;;;;;;;4.03;1.80;;;;;;;18.57;63.73;100952.73;1760204;81;21000;-78
2022/06/18 05:56:41;;;;;;;3.02;1.80;;;;;;;18.68;63.40;100951.59;1708875;81;21936;-78
2022/06/18 05:59:13;;;;;;;3.08;2.05;;;;;;;18.80;63.02;100941.18;1731729;81;21042;-78
2022/06/18 06:01:43;;;;;;;3.85;1.98;;;;;;;18.91;62.68;100934.23;1736335;81;21074;-81
2022/06/18 06:04:11;;;;;;;2.35;1.50;;;;;;;19.04;62.60;100925.47;1747172;81;21017;-79
2022/06/18 06:06:39;;;;;;;3.10;1.97;;;;;;;19.16;62.27;100924.70;1759999;81;21090;-82
2022/06/18 06:09:07;;;;;;;3.58;2.12;;;;;;;19.26;62.03;100920.50;1753297;81;21098;-75
2022/06/18 06:11:37;;;;;;;3.02;1.80;;;;;;;19.38;61.87;100916.18;1758593;81;21677;-80
2022/06/18 06:14:06;;;;;;;5.05;2.30;;;;;;;19.50;61.39;100914.03;1754852;81;21106;-78
2022/06/18 06:16:33;;;;;;;4.85;2.22;;;;;;;19.62;61.21;100909.72;1743163;81;21037;-76
2022/06/18 06:19:03;;;;;;;5.03;1.67;;;;;;;19.74;61.23;100898.77;1739061;81;21007;-81
2022/06/18 06:21:30;;;;;;;2.80;1.72;;;;;;;19.88;60.46;100900.48;1759645;81;21125;-75
2022/06/18 06:23:57;;;;;;;2.25;1.47;;;;;;;20.06;59.99;100888.56;1761344;80;20967;-76
2022/06/18 06:26:28;;;;;;;2.67;1.80;;;;;;;20.24;59.40;100889.96;1749899;81;20994;-76
2022/06/18 06:28:55;;;;;;;2.80;1.47;;;;;;;20.38;59.15;100902.80;1758555;81;21028;-76
2022/06/18 06:31:23;;;;;;;2.20;1.40;;;;;;;20.54;58.67;100903.45;1762569;80;21075;-76
2022/06/18 06:33:50;;;;;;;2.33;1.32;;;;;;;20.71;58.10;100903.58;1750484;81;21791;-77
2022/06/18 06:36:17;;;;;;;1.92;1.40;;;;;;;20.86;57.66;100896.28;1753777;81;21078;-78
2022/06/18 06:38:45;;;;;;;2.47;1.50;;;;;;;21.00;57.07;100892.62;1744885;81;21523;-79
2022/06/18 06:41:20;;;;;;;3.22;1.27;;;;;;;21.11;56.68;100894.02;1750622;81;21039;-78
2022/06/18 06:43:48;;;;;;;5.35;1.60;;;;;;;21.23;56.42;100890.92;1752903;80;21552;-77
2022/06/18 06:46:18;;;;;;;1.70;1.27;;;;;;;21.35;56.28;100890.87;1754602;79;21126;-78
2022/06/18 06:48:46;;;;;;;4.33;1.50;;;;;;;21.50;55.96;100890.72;1743902;81;21051;-76
2022/06/18 06:51:18;;;;;;;2.87;1.47;;;;;;;21.64;55.58;100896.34;1741087;81;21312;-76
2022/06/18 06:53:46;;;;;;;1.82;1.00;;;;;;;21.76;55.00;100903.44;1755933;81;21822;-76
2022/06/18 06:59:01;;;;;;;1.80;1.52;;;;;;;21.92;54.11;100891.96;1734635;79;21140;-76
2022/06/18 07:01:29;;;;;;;2.95;1.50;;;;;;;22.00;54.01;100889.55;1740738;81;21069;-76
2022/06/18 07:03:56;;;;;;;3.17;1.50;;;;;;;22.10;53.74;100886.16;1739818;81;21489;-78
2022/06/18 07:06:24;;;;;;;2.85;1.45;;;;;;;22.18;53.50;100881.95;1753683;79;21021;-77
2022/06/18 07:08:54;;;;;;;1.85;1.20;;;;;;;22.29;53.29;100883.78;1738933;79;21736;-79
2022/06/18 07:11:23;;;;;;;3.20;1.32;;;;;;;22.42;52.99;100871.63;1746780;80;21132;-78
2022/06/18 07:13:52;;;;;;;1.95;1.12;;;;;;;22.55;52.98;100864.83;1756910;79;21410;-79
2022/06/18 07:16:20;;;;;;;2.70;1.17;;;;;;;22.71;52.48;100862.14;1764784;80;21071;-79
2022/06/18 07:18:49;;;;;;;2.33;1.30;;;;;;;22.87;51.95;100875.61;1761580;80;21105;-78
2022/06/18 07:21:19;;;;;;;3.17;1.30;;;;;;;22.97;51.53;100862.36;1764073;79;21048;-77
2022/06/18 07:23:49;;;;;;;4.33;1.30;;;;;;;23.04;51.20;100858.22;1761033;79;21121;-79
2022/06/18 07:26:23;;;;;;;4.00;1.25;;;;;;;23.11;50.91;100862.95;1763662;80;21071;-78
2022/06/18 07:28:50;;;;;;;4.15;1.00;;;;;;;23.18;50.50;100856.59;1763735;81;20992;-80
2022/06/18 07:31:29;;;;;;;2.95;1.15;;;;;;;23.27;50.13;100862.50;1756653;79;21059;-77
2022/06/18 07:33:59;;;;;;;5.95;1.20;;;;;;;23.34;50.00;100854.84;1762979;81;21087;-77
2022/06/18 07:36:30;;;;;;;3.27;1.20;;;;;;;23.42;49.74;100862.19;1763464;81;21083;-80
2022/06/18 07:38:58;;;;;;;2.20;1.17;;;;;;;23.54;49.25;100857.17;1743907;81;21070;-80
2022/06/18 07:41:33;;;;;;;4.50;1.40;;;;;;;23.65;49.08;100845.06;1746851;81;21008;-79
2022/06/18 07:44:02;;;;;;;2.47;1.02;;;;;;;23.77;48.74;100844.53;1762855;80;20988;-80
2022/06/18 07:46:30;;;;;;;1.77;1.00;;;;;;;23.87;48.23;100845.95;1763329;80;21482;-79
2022/06/18 07:48:58;;;;;;;3.35;1.20;;;;;;;24.00;47.78;100844.75;1760036;79;21584;-78
2022/06/18 07:51:26;;;;;;;3.50;1.20;;;;;;;24.16;47.42;100845.58;1762080;80;20985;-78
2022/06/18 07:53:54;;;;;;;2.62;1.10;;;;;;;24.31;46.94;100835.88;1762253;80;21035;-78
2022/06/18 07:56:22;;;;;;;5.25;1.20;;;;;;;24.43;46.61;100836.99;1759258;81;21035;-79
2022/06/18 07:58:50;;;;;;;3.58;0.90;;;;;;;24.52;46.37;100831.30;1739708;79;21455;-78
2022/06/18 08:01:17;;;;;;;1.25;0.80;;;;;;;24.66;46.04;100827.39;1745442;81;21107;-78
2022/06/18 08:03:44;;;;;;;2.95;1.00;;;;;;;24.78;45.75;100833.01;1733923;79;21004;-78
2022/06/18 08:06:12;;;;;;;3.35;0.90;;;;;;;24.89;45.70;100826.68;1742762;81;21072;-81
2022/06/18 08:08:40;;;;;;;2.87;0.78;;;;;;;24.98;45.26;100822.31;1743050;81;21059;-79
2022/06/18 08:11:12;;;;;;;2.98;1.52;;;;;;;25.09;44.99;100818.15;1740496;81;22064;-79
2022/06/18 08:13:41;;;;;;;2.10;0.70;;;;;;;25.22;44.56;100810.70;1744403;79;21899;-79
2022/06/18 08:16:13;;;;;;;1.52;0.70;;;;;;;25.35;43.91;100805.88;1755844;79;21043;-79
2022/06/18 08:18:41;;;;;;;2.10;0.80;;;;;;;25.42;43.42;100809.35;1749156;81;21011;-80
2022/06/18 08:21:21;;;;;;;2.52;0.80;;;;;;;25.53;43.07;100802.48;1751370;79;21474;-79
2022/06/18 08:23:53;;;;;;;1.32;0.60;;;;;;;25.63;42.73;100803.79;1760131;81;21056;-80
2022/06/18 08:26:21;;;;;;;1.70;0.70;;;;;;;25.73;42.37;100799.25;1758579;80;22166;-79
2022/06/18 08:28:50;;;;;;;1.45;0.70;;;;;;;25.87;41.99;100796.63;1765016;80;21087;-79
2022/06/18 08:31:17;;;;;;;1.92;0.72;;;;;;;26.00;41.69;100792.63;1755705;81;21555;-79
2022/06/18 08:33:44;;;;;;;4.25;0.72;;;;;;;26.13;41.18;100800.33;1750766;81;20994;-79
2022/06/18 08:36:15;;;;;;;1.22;0.60;;;;;;;26.23;40.80;100790.39;1760723;81;21533;-79
2022/06/18 08:38:47;;;;;;;2.60;0.60;;;;;;;26.39;40.49;100785.72;1754924;81;21485;-79
2022/06/18 08:41:44;;;;;;;1.77;0.62;;;;;;;26.55;39.91;100786.45;1754903;81;21042;-80
2022/06/18 08:44:31;;;;;;;2.35;0.72;;;;;;;26.67;39.46;100784.38;1754956;81;21516;-79
2022/06/18 08:47:13;;;;;;;2.67;0.60;;;;;;;26.77;38.71;100781.13;1741876;81;21101;-79
2022/06/18 08:50:01;;;;;;;3.87;0.80;;;;;;;26.81;38.25;100774.94;1753331;81;21063;-80
2022/06/18 08:52:40;;;;;;;0.98;0.62;;;;;;;26.85;38.16;100771.77;1733459;80;21909;-79
2022/06/18 08:55:33;;;;;;;1.50;0.80;;;;;;;26.85;37.99;100771.77;1754891;80;21058;-79
2022/06/18 08:58:28;;;;;;;1.47;0.60;;;;;;;26.86;37.83;100766.76;1754287;81;21004;-80
2022/06/18 09:01:27;;;;;;;1.87;0.60;;;;;;;26.93;37.81;100761.09;1750951;81;21137;-78
2022/06/18 09:04:19;;;;;;;1.40;0.70;;;;;;;26.97;37.68;100759.47;1734647;81;20998;-77
2022/06/18 09:07:07;;;;;;;0.75;0.70;;;;;;;27.03;37.45;100756.98;1751182;81;21209;-78
2022/06/18 09:09:55;;;;;;;1.17;0.80;;;;;;;27.09;37.64;100748.80;1711006;82;21042;-78
2022/06/18 09:12:39;;;;;;;2.42;0.80;;;;;;;27.23;37.32;100745.57;1743548;81;21067;-78
2022/06/18 09:15:20;;;;;;;2.17;0.70;;;;;;;27.28;37.10;100744.61;1722918;81;21029;-78
2022/06/18 09:18:00;;;;;;;0.78;0.70;;;;;;;27.31;36.97;100738.91;1734307;81;21070;-78
2022/06/18 09:20:45;;;;;;;2.42;0.70;;;;;;;27.36;36.83;100731.20;1736378;81;21159;-78
2022/06/18 09:23:21;;;;;;;3.35;0.95;;;;;;;27.41;36.48;100727.18;1750983;80;21003;-80
2022/06/18 09:25:51;;;;;;;3.12;0.80;;;;;;;27.48;36.47;100728.25;1737491;81;21061;-81
2022/06/18 09:28:39;;;;;;;1.07;0.65;;;;;;;27.55;36.05;100725.28;1752331;81;21102;-80
2022/06/18 09:31:18;;;;;;;1.30;0.70;;;;;;;27.63;35.90;100722.63;1756288;80;21077;-79
2022/06/18 09:34:17;;;;;;;1.72;0.70;;;;;;;27.70;35.69;100720.13;1750371;81;21121;-80
2022/06/18 09:36:50;;;;;;;2.55;0.70;;;;;;;27.80;35.64;100712.81;1769030;80;21583;-79
2022/06/18 09:39:29;;;;;;;1.90;0.80;;;;;;;27.95;35.32;100711.69;1770425;80;21062;-79
2022/06/18 09:42:08;;;;;;;3.30;1.07;;;;;;;28.03;35.02;100712.56;1762513;80;20978;-80
2022/06/18 09:44:49;;;;;;;1.37;0.72;;;;;;;28.11;34.93;100708.22;1761268;80;21007;-80
2022/06/18 09:47:34;;;;;;;1.75;0.80;;;;;;;28.17;34.48;100704.36;1742137;81;21833;-80
2022/06/18 09:50:02;;;;;;;2.87;0.70;;;;;;;28.26;34.33;100701.17;1742382;81;21698;-79
2022/06/18 09:52:39;;;;;;;1.77;0.80;;;;;;;28.33;34.24;100692.78;1762214;81;21500;-80
2022/06/18 09:55:20;;;;;;;1.32;0.80;;;;;;;28.38;34.28;100691.79;1773472;80;21007;-81
2022/06/18 09:57:52;;;;;;;1.85;0.70;;;;;;;28.46;34.28;100687.79;1767953;80;21225;-80
2022/06/18 10:00:24;;;;;;;1.72;0.65;;;;;;;28.57;34.26;100685.28;1773709;80;21123;-80
2022/06/18 10:06:52;;;;;;;1.92;0.80;;;;;;;28.68;33.84;100684.08;1773579;80;20951;-80
2022/06/18 10:08:38;;;;;;;0.82;0.50;;;;;;;29.03;33.41;100674.84;1761861;80;21039;-80
2022/06/18 10:11:10;;;;;;;0.90;0.60;;;;;;;29.17;32.98;100677.34;1774004;80;20996;-80
2022/06/18 10:13:45;;;;;;;1.17;0.78;;;;;;;29.29;32.67;100676.47;1753527;80;21199;-80
2022/06/18 10:16:46;;;;;;;1.12;0.60;;;;;;;29.35;32.54;100665.84;1760891;80;20976;-80
2022/06/18 10:19:40;;;;;;;4.08;0.50;;;;;;;29.46;32.64;100667.82;1755663;80;22257;-80
2022/06/18 10:22:15;;;;;;;2.05;0.70;;;;;;;29.62;32.14;100670.98;1773832;79;21059;-80
2022/06/18 10:25:18;;;;;;;3.15;0.70;;;;;;;29.74;32.10;100662.38;1754604;80;21051;-80
2022/06/18 10:28:03;;;;;;;1.62;0.75;;;;;;;29.91;31.94;100654.19;1761074;80;21119;-79
2022/06/18 10:30:55;;;;;;;2.40;0.57;;;;;;;30.06;31.82;100635.34;1768718;80;21480;-81
2022/06/18 10:33:34;;;;;;;2.00;0.80;;;;;;;30.22;31.20;100644.22;1740975;81;21023;-80
2022/06/18 10:36:40;;;;;;;1.67;0.60;;;;;;;30.38;30.97;100641.09;1765082;80;21051;-83
2022/06/18 10:39:38;;;;;;;1.40;0.40;;;;;;;30.67;31.13;100634.92;1736149;82;21051;-78
2022/06/18 10:42:45;;;;;;;0.88;0.50;;;;;;;31.06;30.43;100636.62;1777056;80;22025;-79
2022/06/18 10:45:29;;;;;;;1.77;0.60;;;;;;;31.32;29.04;100633.48;1739450;81;21020;-79
2022/06/18 10:48:00;;;;;;;0.82;0.60;;;;;;;31.65;28.83;100622.25;1757038;80;21243;-76
2022/06/18 10:50:30;;;;;;;1.07;0.53;;;;;;;31.85;28.08;100623.35;1739539;81;20999;-74
2022/06/18 10:53:02;;;;;;;;;;;;;;;32.04;28.13;100615.16;1757209;81;21890;-75
2022/06/18 10:55:30;;;;;;;2.55;0.70;;;;;;;32.26;27.87;100602.94;1748877;81;21192;-82
2022/06/18 10:58:15;;;;;;;3.10;0.60;;;;;;;32.56;28.31;100610.45;1758989;81;21057;-77
2022/06/18 11:01:03;;;;;;;0.95;0.60;;;;;;;32.74;27.58;100597.25;1756714;80;21053;-86
2022/06/18 11:03:33;;;;;;;4.05;0.70;;;;;;;32.88;27.58;100592.23;1735396;81;21013;-75
2022/06/18 11:06:04;;;;;;;2.65;0.70;;;;;;;33.15;27.60;100587.53;1782023;80;21096;-76
2022/06/18 11:08:35;;;;;;;1.45;0.70;;;;;;;33.46;27.31;100591.13;1761403;80;21571;-78
2022/06/18 11:11:06;;;;;;;1.27;0.60;;;;;;;33.54;26.61;100599.98;1740960;81;21050;-77
2022/06/18 11:13:41;;;;;;;3.27;0.80;;;;;;;33.65;26.64;100585.50;1763651;80;21026;-76
2022/06/18 11:16:22;;;;;;;4.12;0.68;;;;;;;33.92;26.53;100576.37;1731378;81;21013;-73
2022/06/18 11:18:57;;;;;;;3.62;0.50;;;;;;;34.11;26.07;100584.79;1753456;81;21025;-77
2022/06/18 11:21:35;;;;;;;1.85;0.70;;;;;;;34.16;25.75;100587.73;1743271;81;21102;-76
2022/06/18 11:24:16;;;;;;;3.30;0.60;;;;;;;34.20;25.21;100577.59;1761145;80;21035;-77
2022/06/18 11:26:55;;;;;;;0.90;0.42;;;;;;;34.20;25.25;100580.84;1759051;80;21076;-76
2022/06/18 11:29:42;;;;;;;1.65;0.55;;;;;;;34.26;25.48;100565.05;1784049;80;21047;-78
2022/06/18 11:32:23;;;;;;;0.80;0.60;;;;;;;34.46;25.37;100569.13;1759642;81;21034;-79
2022/06/18 11:35:07;;;;;;;2.95;0.82;;;;;;;34.70;25.08;100574.49;1749961;81;21528;-85
2022/06/18 11:37:35;;;;;;;2.08;0.70;;;;;;;34.70;24.81;100560.02;1754843;81;20996;-82
2022/06/18 11:40:14;;;;;;;1.60;0.50;;;;;;;34.87;24.73;100565.36;1751317;79;21004;-83
2022/06/18 11:43:01;;;;;;;1.62;0.60;;;;;;;34.91;24.57;100561.14;1757466;79;21461;-78
2022/06/18 11:45:46;;;;;;;1.63;0.70;;;;;;;34.89;23.89;100567.84;1742868;79;21043;-80
2022/06/18 11:48:43;;;;;;;1.60;0.55;;;;;;;34.81;23.95;100556.16;1759073;81;21712;-78
2022/06/18 11:51:39;;;;;;;1.65;0.85;;;;;;;34.91;23.86;100561.14;1748702;81;20980;-83
2022/06/18 11:54:27;;;;;;;1.37;0.57;;;;;;;35.03;23.56;100552.64;1758381;81;21039;-80
2022/06/18 11:57:16;;;;;;;2.87;0.82;;;;;;;35.11;23.88;100540.69;1740357;81;21534;-82
2022/06/18 11:59:53;;;;;;;2.85;0.60;;;;;;;35.23;23.57;100544.43;1763648;81;21078;-79
2022/06/18 12:02:43;;;;;;;1.10;0.70;;;;;;;35.25;23.05;100546.42;1752584;81;21105;-83
2022/06/18 12:05:43;;;;;;;1.30;0.70;;;;;;;35.18;23.19;100526.52;1749673;79;21004;-80
2022/06/18 12:08:16;;;;;;;1.37;0.70;;;;;;;35.36;23.32;100531.79;1721804;81;21514;-82
2022/06/18 12:11:23;;;;;;;2.37;0.47;;;;;;;35.54;22.75;100522.38;1763908;79;21024;-83
2022/06/18 12:13:56;;;;;;;2.80;0.70;;;;;;;35.57;23.11;100529.31;1758165;79;21030;-78